sensor_id;sensor_type;location;lat;lon;timestamp;P1;durP1;ratioP1;P2;durP2;ratioP2
12493;SDS011;8260;51.422;6.786;2022-10-29T00:01:13;14.93;;;7.97;;
12493;SDS011;8260;51.422;6.786;2022-10-29T00:03:42;17.58;;;8.02;;
12493;SDS011;8260;51.422;6.786;2022-10-29T00:06:12;13.82;;;8.20;;
12493;SDS011;8260;51.422;6.786;2022-10-29T00:08:41;13.77;;;8.25;;
12493;SDS011;8260;51.422;6.786;2022-10-29T00:11:11;15.95;;;7.97;;
12493;SDS011;8260;51.422;6.786;2022-10-29T00:13:40;15.07;;;7.88;;
12493;SDS011;8260;51.422;6.786;2022-10-29T00:16:10;12.05;;;7.60;;
12493;SDS011;8260;51.422;6.786;2022-10-29T00:18:39;14.23;;;7.30;;
12493;SDS011;8260;51.422;6.786;2022-10-29T00:21:09;12.93;;;7.63;;
12493;SDS011;8260;51.422;6.786;2022-10-29T00:23:38;15.10;;;8.15;;
12493;SDS011;8260;51.422;6.786;2022-10-29T00:26:06;13.95;;;7.68;;
12493;SDS011;8260;51.422;6.786;2022-10-29T00:28:36;15.30;;;8.05;;
12493;SDS011;8260;51.422;6.786;2022-10-29T00:31:06;18.85;;;8.43;;
12493;SDS011;8260;51.422;6.786;2022-10-29T00:33:34;14.95;;;7.47;;
12493;SDS011;8260;51.422;6.786;2022-10-29T00:36:04;15.27;;;7.85;;
12493;SDS011;8260;51.422;6.786;2022-10-29T00:38:33;15.10;;;8.27;;
12493;SDS011;8260;51.422;6.786;2022-10-29T00:41:02;14.18;;;7.93;;
12493;SDS011;8260;51.422;6.786;2022-10-29T00:43:34;14.30;;;7.90;;
12493;SDS011;8260;51.422;6.786;2022-10-29T00:46:05;15.68;;;7.68;;
12493;SDS011;8260;51.422;6.786;2022-10-29T00:48:36;16.55;;;8.68;;
12493;SDS011;8260;51.422;6.786;2022-10-29T00:51:06;13.20;;;8.02;;
12493;SDS011;8260;51.422;6.786;2022-10-29T00:53:37;15.00;;;7.88;;
12493;SDS011;8260;51.422;6.786;2022-10-29T00:56:06;15.32;;;7.95;;
12493;SDS011;8260;51.422;6.786;2022-10-29T00:58:35;16.67;;;7.32;;
12493;SDS011;8260;51.422;6.786;2022-10-29T01:01:05;23.95;;;8.02;;
12493;SDS011;8260;51.422;6.786;2022-10-29T01:03:34;15.57;;;7.60;;
12493;SDS011;8260;51.422;6.786;2022-10-29T01:06:02;17.50;;;7.90;;
12493;SDS011;8260;51.422;6.786;2022-10-29T01:08:31;13.23;;;7.65;;
12493;SDS011;8260;51.422;6.786;2022-10-29T01:11:01;12.18;;;7.57;;
12493;SDS011;8260;51.422;6.786;2022-10-29T01:13:33;11.98;;;7.38;;
12493;SDS011;8260;51.422;6.786;2022-10-29T01:16:07;10.90;;;7.20;;
12493;SDS011;8260;51.422;6.786;2022-10-29T01:18:39;15.93;;;6.95;;
12493;SDS011;8260;51.422;6.786;2022-10-29T01:21:33;14.75;;;7.18;;
12493;SDS011;8260;51.422;6.786;2022-10-29T01:24:13;13.82;;;7.15;;
12493;SDS011;8260;51.422;6.786;2022-10-29T01:26:51;14.13;;;7.72;;
12493;SDS011;8260;51.422;6.786;2022-10-29T01:29:30;16.08;;;7.35;;
12493;SDS011;8260;51.422;6.786;2022-10-29T01:32:05;17.48;;;7.47;;
12493;SDS011;8260;51.422;6.786;2022-10-29T01:34:39;16.38;;;7.03;;
12493;SDS011;8260;51.422;6.786;2022-10-29T01:37:12;14.35;;;7.30;;
12493;SDS011;8260;51.422;6.786;2022-10-29T01:39:43;13.82;;;7.78;;
12493;SDS011;8260;51.422;6.786;2022-10-29T01:42:13;11.88;;;7.40;;
12493;SDS011;8260;51.422;6.786;2022-10-29T01:44:45;12.15;;;7.10;;
12493;SDS011;8260;51.422;6.786;2022-10-29T01:47:17;16.83;;;8.70;;
12493;SDS011;8260;51.422;6.786;2022-10-29T01:49:47;12.82;;;7.80;;
12493;SDS011;8260;51.422;6.786;2022-10-29T01:52:18;13.35;;;7.55;;
12493;SDS011;8260;51.422;6.786;2022-10-29T01:54:47;13.73;;;7.47;;
12493;SDS011;8260;51.422;6.786;2022-10-29T01:57:26;13.98;;;7.28;;
12493;SDS011;8260;51.422;6.786;2022-10-29T01:59:55;15.88;;;6.93;;
12493;SDS011;8260;51.422;6.786;2022-10-29T02:02:27;11.80;;;7.22;;
12493;SDS011;8260;51.422;6.786;2022-10-29T02:05:00;19.92;;;7.80;;
12493;SDS011;8260;51.422;6.786;2022-10-29T02:07:33;16.27;;;7.82;;
12493;SDS011;8260;51.422;6.786;2022-10-29T02:10:05;12.45;;;7.38;;
12493;SDS011;8260;51.422;6.786;2022-10-29T02:12:37;15.52;;;7.38;;
12493;SDS011;8260;51.422;6.786;2022-10-29T02:15:08;12.85;;;7.35;;
12493;SDS011;8260;51.422;6.786;2022-10-29T02:17:44;12.77;;;7.82;;
12493;SDS011;8260;51.422;6.786;2022-10-29T02:20:13;14.38;;;8.23;;
12493;SDS011;8260;51.422;6.786;2022-10-29T02:22:41;18.17;;;8.38;;
12493;SDS011;8260;51.422;6.786;2022-10-29T02:25:10;12.35;;;6.75;;
12493;SDS011;8260;51.422;6.786;2022-10-29T02:27:39;11.10;;;7.18;;
12493;SDS011;8260;51.422;6.786;2022-10-29T02:30:08;15.50;;;7.75;;
12493;SDS011;8260;51.422;6.786;2022-10-29T02:32:36;12.43;;;7.88;;
12493;SDS011;8260;51.422;6.786;2022-10-29T02:35:07;14.48;;;8.02;;
12493;SDS011;8260;51.422;6.786;2022-10-29T02:37:36;13.32;;;7.82;;
12493;SDS011;8260;51.422;6.786;2022-10-29T02:40:05;13.00;;;7.18;;
12493;SDS011;8260;51.422;6.786;2022-10-29T02:42:33;12.00;;;7.25;;
12493;SDS011;8260;51.422;6.786;2022-10-29T02:45:02;13.70;;;8.25;;
12493;SDS011;8260;51.422;6.786;2022-10-29T02:47:30;14.05;;;8.25;;
12493;SDS011;8260;51.422;6.786;2022-10-29T02:49:59;13.40;;;8.65;;
12493;SDS011;8260;51.422;6.786;2022-10-29T02:52:28;14.00;;;7.45;;
12493;SDS011;8260;51.422;6.786;2022-10-29T02:54:57;13.50;;;7.53;;
12493;SDS011;8260;51.422;6.786;2022-10-29T02:57:25;14.60;;;7.53;;
12493;SDS011;8260;51.422;6.786;2022-10-29T02:59:56;15.63;;;7.45;;
12493;SDS011;8260;51.422;6.786;2022-10-29T03:02:24;19.85;;;7.93;;
12493;SDS011;8260;51.422;6.786;2022-10-29T03:04:53;13.80;;;7.72;;
12493;SDS011;8260;51.422;6.786;2022-10-29T03:07:21;15.13;;;7.97;;
12493;SDS011;8260;51.422;6.786;2022-10-29T03:09:51;15.10;;;8.48;;
12493;SDS011;8260;51.422;6.786;2022-10-29T03:12:20;16.15;;;7.85;;
12493;SDS011;8260;51.422;6.786;2022-10-29T03:14:48;14.85;;;7.85;;
12493;SDS011;8260;51.422;6.786;2022-10-29T03:17:17;14.65;;;8.35;;
12493;SDS011;8260;51.422;6.786;2022-10-29T03:19:45;16.02;;;8.07;;
12493;SDS011;8260;51.422;6.786;2022-10-29T03:22:13;19.27;;;9.20;;
12493;SDS011;8260;51.422;6.786;2022-10-29T03:24:42;13.00;;;8.23;;
12493;SDS011;8260;51.422;6.786;2022-10-29T03:27:11;11.48;;;7.47;;
12493;SDS011;8260;51.422;6.786;2022-10-29T03:29:40;14.77;;;7.75;;
12493;SDS011;8260;51.422;6.786;2022-10-29T03:32:08;13.23;;;7.63;;
12493;SDS011;8260;51.422;6.786;2022-10-29T03:34:37;16.08;;;8.05;;
12493;SDS011;8260;51.422;6.786;2022-10-29T03:37:05;16.10;;;8.40;;
12493;SDS011;8260;51.422;6.786;2022-10-29T03:39:35;16.58;;;8.15;;
12493;SDS011;8260;51.422;6.786;2022-10-29T03:42:03;15.13;;;8.00;;
12493;SDS011;8260;51.422;6.786;2022-10-29T03:44:33;15.13;;;8.52;;
12493;SDS011;8260;51.422;6.786;2022-10-29T03:47:02;16.23;;;8.32;;
12493;SDS011;8260;51.422;6.786;2022-10-29T03:49:30;13.40;;;9.00;;
12493;SDS011;8260;51.422;6.786;2022-10-29T03:51:58;12.52;;;7.43;;
12493;SDS011;8260;51.422;6.786;2022-10-29T03:54:27;12.10;;;8.02;;
12493;SDS011;8260;51.422;6.786;2022-10-29T03:56:55;14.88;;;7.20;;
12493;SDS011;8260;51.422;6.786;2022-10-29T03:59:26;17.73;;;8.73;;
12493;SDS011;8260;51.422;6.786;2022-10-29T04:01:56;19.05;;;8.52;;
12493;SDS011;8260;51.422;6.786;2022-10-29T04:04:25;21.23;;;8.60;;
12493;SDS011;8260;51.422;6.786;2022-10-29T04:06:53;14.77;;;8.63;;
12493;SDS011;8260;51.422;6.786;2022-10-29T04:09:22;15.70;;;8.23;;
12493;SDS011;8260;51.422;6.786;2022-10-29T04:11:50;14.40;;;8.85;;
12493;SDS011;8260;51.422;6.786;2022-10-29T04:14:19;15.45;;;8.00;;
12493;SDS011;8260;51.422;6.786;2022-10-29T04:16:47;13.52;;;8.50;;
12493;SDS011;8260;51.422;6.786;2022-10-29T04:19:17;15.50;;;8.57;;
12493;SDS011;8260;51.422;6.786;2022-10-29T04:21:45;14.52;;;8.52;;
12493;SDS011;8260;51.422;6.786;2022-10-29T04:24:34;13.38;;;9.00;;
12493;SDS011;8260;51.422;6.786;2022-10-29T04:27:23;13.82;;;8.63;;
12493;SDS011;8260;51.422;6.786;2022-10-29T04:30:11;11.38;;;8.00;;
12493;SDS011;8260;51.422;6.786;2022-10-29T04:32:40;14.68;;;8.45;;
12493;SDS011;8260;51.422;6.786;2022-10-29T04:35:09;17.27;;;8.30;;
12493;SDS011;8260;51.422;6.786;2022-10-29T04:37:38;15.40;;;9.15;;
12493;SDS011;8260;51.422;6.786;2022-10-29T04:40:07;16.88;;;9.35;;
12493;SDS011;8260;51.422;6.786;2022-10-29T04:42:36;13.63;;;8.75;;
12493;SDS011;8260;51.422;6.786;2022-10-29T04:45:05;17.48;;;8.88;;
12493;SDS011;8260;51.422;6.786;2022-10-29T04:47:34;18.35;;;9.23;;
12493;SDS011;8260;51.422;6.786;2022-10-29T04:50:04;19.02;;;9.10;;
12493;SDS011;8260;51.422;6.786;2022-10-29T04:52:34;19.88;;;8.45;;
12493;SDS011;8260;51.422;6.786;2022-10-29T04:55:03;14.15;;;7.97;;
12493;SDS011;8260;51.422;6.786;2022-10-29T04:57:32;16.88;;;8.73;;
12493;SDS011;8260;51.422;6.786;2022-10-29T05:00:00;11.48;;;8.27;;
12493;SDS011;8260;51.422;6.786;2022-10-29T05:02:29;14.18;;;7.97;;
12493;SDS011;8260;51.422;6.786;2022-10-29T05:04:57;18.77;;;8.38;;
12493;SDS011;8260;51.422;6.786;2022-10-29T05:07:25;15.35;;;8.73;;
12493;SDS011;8260;51.422;6.786;2022-10-29T05:09:55;14.75;;;8.07;;
12493;SDS011;8260;51.422;6.786;2022-10-29T05:12:23;10.88;;;7.60;;
12493;SDS011;8260;51.422;6.786;2022-10-29T05:14:52;18.52;;;8.05;;
12493;SDS011;8260;51.422;6.786;2022-10-29T05:17:20;13.70;;;7.60;;
12493;SDS011;8260;51.422;6.786;2022-10-29T05:19:49;15.23;;;7.45;;
12493;SDS011;8260;51.422;6.786;2022-10-29T05:22:17;9.27;;;7.00;;
12493;SDS011;8260;51.422;6.786;2022-10-29T05:24:46;13.98;;;7.53;;
12493;SDS011;8260;51.422;6.786;2022-10-29T05:27:16;10.20;;;7.50;;
12493;SDS011;8260;51.422;6.786;2022-10-29T05:29:44;15.57;;;7.78;;
12493;SDS011;8260;51.422;6.786;2022-10-29T05:32:14;16.30;;;8.75;;
12493;SDS011;8260;51.422;6.786;2022-10-29T05:34:44;13.98;;;8.02;;
12493;SDS011;8260;51.422;6.786;2022-10-29T05:37:13;15.05;;;6.97;;
12493;SDS011;8260;51.422;6.786;2022-10-29T05:39:43;15.02;;;7.57;;
12493;SDS011;8260;51.422;6.786;2022-10-29T05:42:12;17.60;;;8.48;;
12493;SDS011;8260;51.422;6.786;2022-10-29T05:44:42;15.65;;;8.13;;
12493;SDS011;8260;51.422;6.786;2022-10-29T05:47:10;17.35;;;8.15;;
12493;SDS011;8260;51.422;6.786;2022-10-29T05:49:39;17.88;;;8.55;;
12493;SDS011;8260;51.422;6.786;2022-10-29T05:52:07;14.07;;;7.50;;
12493;SDS011;8260;51.422;6.786;2022-10-29T05:54:35;14.70;;;8.40;;
12493;SDS011;8260;51.422;6.786;2022-10-29T05:57:04;14.10;;;7.25;;
12493;SDS011;8260;51.422;6.786;2022-10-29T05:59:32;18.02;;;7.90;;
12493;SDS011;8260;51.422;6.786;2022-10-29T06:02:02;13.80;;;7.57;;
12493;SDS011;8260;51.422;6.786;2022-10-29T06:04:32;14.93;;;8.23;;
12493;SDS011;8260;51.422;6.786;2022-10-29T06:07:01;14.43;;;8.32;;
12493;SDS011;8260;51.422;6.786;2022-10-29T06:09:29;16.23;;;8.27;;
12493;SDS011;8260;51.422;6.786;2022-10-29T06:11:58;14.27;;;7.88;;
12493;SDS011;8260;51.422;6.786;2022-10-29T06:14:27;15.10;;;7.35;;
12493;SDS011;8260;51.422;6.786;2022-10-29T06:16:55;13.52;;;7.55;;
12493;SDS011;8260;51.422;6.786;2022-10-29T06:19:25;14.60;;;7.78;;
12493;SDS011;8260;51.422;6.786;2022-10-29T06:21:54;16.08;;;8.05;;
12493;SDS011;8260;51.422;6.786;2022-10-29T06:24:25;16.67;;;8.23;;
12493;SDS011;8260;51.422;6.786;2022-10-29T06:26:54;14.70;;;8.15;;
12493;SDS011;8260;51.422;6.786;2022-10-29T06:29:23;13.13;;;7.35;;
12493;SDS011;8260;51.422;6.786;2022-10-29T06:31:51;10.27;;;6.82;;
12493;SDS011;8260;51.422;6.786;2022-10-29T06:34:20;12.70;;;7.28;;
12493;SDS011;8260;51.422;6.786;2022-10-29T06:36:50;14.20;;;7.20;;
12493;SDS011;8260;51.422;6.786;2022-10-29T06:39:18;16.30;;;8.65;;
12493;SDS011;8260;51.422;6.786;2022-10-29T06:41:47;14.90;;;7.43;;
12493;SDS011;8260;51.422;6.786;2022-10-29T06:44:17;17.17;;;7.70;;
12493;SDS011;8260;51.422;6.786;2022-10-29T06:46:46;16.83;;;7.63;;
12493;SDS011;8260;51.422;6.786;2022-10-29T06:49:14;12.48;;;7.45;;
12493;SDS011;8260;51.422;6.786;2022-10-29T06:51:43;13.52;;;7.45;;
12493;SDS011;8260;51.422;6.786;2022-10-29T06:54:15;16.42;;;7.32;;
12493;SDS011;8260;51.422;6.786;2022-10-29T06:56:44;13.13;;;7.10;;
12493;SDS011;8260;51.422;6.786;2022-10-29T06:59:14;13.65;;;6.80;;
12493;SDS011;8260;51.422;6.786;2022-10-29T07:01:42;16.73;;;8.30;;
12493;SDS011;8260;51.422;6.786;2022-10-29T07:04:12;13.35;;;7.03;;
12493;SDS011;8260;51.422;6.786;2022-10-29T07:06:40;14.18;;;7.45;;
12493;SDS011;8260;51.422;6.786;2022-10-29T07:09:11;16.17;;;7.88;;
12493;SDS011;8260;51.422;6.786;2022-10-29T07:11:40;12.32;;;8.10;;
12493;SDS011;8260;51.422;6.786;2022-10-29T07:14:09;12.02;;;7.18;;
12493;SDS011;8260;51.422;6.786;2022-10-29T07:16:38;12.43;;;7.25;;
12493;SDS011;8260;51.422;6.786;2022-10-29T07:19:08;19.50;;;7.97;;
12493;SDS011;8260;51.422;6.786;2022-10-29T07:21:45;14.23;;;7.07;;
12493;SDS011;8260;51.422;6.786;2022-10-29T07:24:13;13.02;;;7.03;;
12493;SDS011;8260;51.422;6.786;2022-10-29T07:26:44;14.63;;;6.85;;
12493;SDS011;8260;51.422;6.786;2022-10-29T07:29:12;13.73;;;7.05;;
12493;SDS011;8260;51.422;6.786;2022-10-29T07:31:41;15.05;;;8.05;;
12493;SDS011;8260;51.422;6.786;2022-10-29T07:34:10;14.35;;;7.28;;
12493;SDS011;8260;51.422;6.786;2022-10-29T07:36:39;12.95;;;7.25;;
12493;SDS011;8260;51.422;6.786;2022-10-29T07:39:08;12.43;;;7.38;;
12493;SDS011;8260;51.422;6.786;2022-10-29T07:41:36;13.18;;;6.82;;
12493;SDS011;8260;51.422;6.786;2022-10-29T07:44:06;14.70;;;7.40;;
12493;SDS011;8260;51.422;6.786;2022-10-29T07:46:34;13.40;;;7.03;;
12493;SDS011;8260;51.422;6.786;2022-10-29T07:49:03;10.55;;;6.95;;
12493;SDS011;8260;51.422;6.786;2022-10-29T07:51:31;12.55;;;6.95;;
12493;SDS011;8260;51.422;6.786;2022-10-29T07:54:00;14.50;;;7.10;;
12493;SDS011;8260;51.422;6.786;2022-10-29T07:56:28;12.88;;;6.53;;
12493;SDS011;8260;51.422;6.786;2022-10-29T07:58:56;9.60;;;6.22;;
12493;SDS011;8260;51.422;6.786;2022-10-29T08:01:26;14.07;;;6.85;;
12493;SDS011;8260;51.422;6.786;2022-10-29T08:03:57;12.23;;;6.40;;
12493;SDS011;8260;51.422;6.786;2022-10-29T08:06:26;9.93;;;6.28;;
12493;SDS011;8260;51.422;6.786;2022-10-29T08:08:54;10.32;;;6.10;;
12493;SDS011;8260;51.422;6.786;2022-10-29T08:11:23;11.30;;;5.95;;
12493;SDS011;8260;51.422;6.786;2022-10-29T08:13:52;17.25;;;6.50;;
12493;SDS011;8260;51.422;6.786;2022-10-29T08:16:30;10.60;;;5.88;;
12493;SDS011;8260;51.422;6.786;2022-10-29T08:18:59;13.32;;;6.32;;
12493;SDS011;8260;51.422;6.786;2022-10-29T08:21:27;12.32;;;6.25;;
12493;SDS011;8260;51.422;6.786;2022-10-29T08:23:55;11.10;;;5.75;;
12493;SDS011;8260;51.422;6.786;2022-10-29T08:26:24;9.38;;;5.88;;
12493;SDS011;8260;51.422;6.786;2022-10-29T08:28:52;12.73;;;6.25;;
12493;SDS011;8260;51.422;6.786;2022-10-29T08:31:21;14.77;;;5.68;;
12493;SDS011;8260;51.422;6.786;2022-10-29T08:33:50;13.82;;;6.10;;
12493;SDS011;8260;51.422;6.786;2022-10-29T08:36:19;13.02;;;5.50;;
12493;SDS011;8260;51.422;6.786;2022-10-29T08:38:47;9.43;;;5.57;;
12493;SDS011;8260;51.422;6.786;2022-10-29T08:41:34;15.15;;;5.55;;
12493;SDS011;8260;51.422;6.786;2022-10-29T08:44:29;11.25;;;5.13;;
12493;SDS011;8260;51.422;6.786;2022-10-29T08:47:06;16.15;;;5.45;;
12493;SDS011;8260;51.422;6.786;2022-10-29T08:49:41;9.77;;;5.80;;
12493;SDS011;8260;51.422;6.786;2022-10-29T08:52:13;9.13;;;5.35;;
12493;SDS011;8260;51.422;6.786;2022-10-29T08:54:46;11.32;;;5.63;;
12493;SDS011;8260;51.422;6.786;2022-10-29T08:57:18;11.57;;;5.57;;
12493;SDS011;8260;51.422;6.786;2022-10-29T08:59:52;11.18;;;5.18;;
12493;SDS011;8260;51.422;6.786;2022-10-29T09:02:26;7.88;;;5.13;;
12493;SDS011;8260;51.422;6.786;2022-10-29T09:04:56;14.15;;;5.40;;
12493;SDS011;8260;51.422;6.786;2022-10-29T09:07:44;10.75;;;5.07;;
12493;SDS011;8260;51.422;6.786;2022-10-29T09:10:17;11.13;;;5.43;;
12493;SDS011;8260;51.422;6.786;2022-10-29T09:13:05;12.13;;;5.30;;
12493;SDS011;8260;51.422;6.786;2022-10-29T09:15:39;10.00;;;5.03;;
12493;SDS011;8260;51.422;6.786;2022-10-29T09:18:15;13.55;;;5.30;;
12493;SDS011;8260;51.422;6.786;2022-10-29T09:20:51;14.40;;;5.20;;
12493;SDS011;8260;51.422;6.786;2022-10-29T09:23:22;12.32;;;5.45;;
12493;SDS011;8260;51.422;6.786;2022-10-29T09:25:55;10.38;;;5.18;;
12493;SDS011;8260;51.422;6.786;2022-10-29T09:28:28;11.25;;;5.10;;
12493;SDS011;8260;51.422;6.786;2022-10-29T09:31:02;20.15;;;6.35;;
12493;SDS011;8260;51.422;6.786;2022-10-29T09:33:35;14.95;;;5.72;;
12493;SDS011;8260;51.422;6.786;2022-10-29T09:36:10;13.07;;;5.60;;
12493;SDS011;8260;51.422;6.786;2022-10-29T09:38:41;13.38;;;4.90;;
12493;SDS011;8260;51.422;6.786;2022-10-29T09:41:13;11.48;;;5.32;;
12493;SDS011;8260;51.422;6.786;2022-10-29T09:43:42;16.17;;;5.57;;
12493;SDS011;8260;51.422;6.786;2022-10-29T09:46:16;12.05;;;5.38;;
12493;SDS011;8260;51.422;6.786;2022-10-29T09:48:51;9.18;;;4.55;;
12493;SDS011;8260;51.422;6.786;2022-10-29T09:51:29;14.88;;;5.43;;
12493;SDS011;8260;51.422;6.786;2022-10-29T09:54:01;12.10;;;4.97;;
12493;SDS011;8260;51.422;6.786;2022-10-29T09:56:31;12.05;;;5.82;;
12493;SDS011;8260;51.422;6.786;2022-10-29T09:59:02;10.98;;;4.85;;
12493;SDS011;8260;51.422;6.786;2022-10-29T10:01:32;12.48;;;5.10;;
12493;SDS011;8260;51.422;6.786;2022-10-29T10:04:02;12.60;;;4.63;;
12493;SDS011;8260;51.422;6.786;2022-10-29T10:06:35;12.30;;;5.43;;
12493;SDS011;8260;51.422;6.786;2022-10-29T10:09:23;12.13;;;5.07;;
12493;SDS011;8260;51.422;6.786;2022-10-29T10:11:52;14.68;;;5.30;;
12493;SDS011;8260;51.422;6.786;2022-10-29T10:14:24;9.20;;;4.68;;
12493;SDS011;8260;51.422;6.786;2022-10-29T10:16:55;13.05;;;4.93;;
12493;SDS011;8260;51.422;6.786;2022-10-29T10:19:25;8.23;;;4.80;;
12493;SDS011;8260;51.422;6.786;2022-10-29T10:21:58;9.05;;;4.80;;
12493;SDS011;8260;51.422;6.786;2022-10-29T10:24:28;10.55;;;5.00;;
12493;SDS011;8260;51.422;6.786;2022-10-29T10:26:57;11.45;;;5.43;;
12493;SDS011;8260;51.422;6.786;2022-10-29T10:30:05;15.23;;;5.50;;
12493;SDS011;8260;51.422;6.786;2022-10-29T10:32:35;13.63;;;5.30;;
12493;SDS011;8260;51.422;6.786;2022-10-29T10:37:48;13.02;;;4.93;;
12493;SDS011;8260;51.422;6.786;2022-10-29T10:40:18;14.60;;;6.00;;
12493;SDS011;8260;51.422;6.786;2022-10-29T10:42:50;8.18;;;4.20;;
12493;SDS011;8260;51.422;6.786;2022-10-29T10:45:23;10.52;;;4.50;;
12493;SDS011;8260;51.422;6.786;2022-10-29T10:47:53;11.45;;;4.90;;
12493;SDS011;8260;51.422;6.786;2022-10-29T10:50:25;17.20;;;5.38;;
12493;SDS011;8260;51.422;6.786;2022-10-29T10:52:57;11.63;;;4.35;;
12493;SDS011;8260;51.422;6.786;2022-10-29T10:55:26;12.00;;;4.53;;
12493;SDS011;8260;51.422;6.786;2022-10-29T10:57:57;11.00;;;4.80;;
12493;SDS011;8260;51.422;6.786;2022-10-29T11:00:36;14.27;;;5.07;;
12493;SDS011;8260;51.422;6.786;2022-10-29T11:03:09;8.95;;;5.15;;
12493;SDS011;8260;51.422;6.786;2022-10-29T11:05:40;17.17;;;5.50;;
12493;SDS011;8260;51.422;6.786;2022-10-29T11:08:15;13.63;;;4.93;;
12493;SDS011;8260;51.422;6.786;2022-10-29T11:10:46;10.40;;;5.10;;
12493;SDS011;8260;51.422;6.786;2022-10-29T11:13:17;10.73;;;4.88;;
12493;SDS011;8260;51.422;6.786;2022-10-29T11:15:49;10.32;;;5.22;;
12493;SDS011;8260;51.422;6.786;2022-10-29T11:18:21;10.70;;;4.47;;
12493;SDS011;8260;51.422;6.786;2022-10-29T11:20:53;10.95;;;4.75;;
12493;SDS011;8260;51.422;6.786;2022-10-29T11:23:28;14.60;;;5.57;;
12493;SDS011;8260;51.422;6.786;2022-10-29T11:25:59;12.90;;;4.95;;
12493;SDS011;8260;51.422;6.786;2022-10-29T11:28:32;13.23;;;4.93;;
12493;SDS011;8260;51.422;6.786;2022-10-29T11:31:02;12.68;;;4.57;;
12493;SDS011;8260;51.422;6.786;2022-10-29T11:33:34;9.65;;;4.57;;
12493;SDS011;8260;51.422;6.786;2022-10-29T11:36:05;11.93;;;4.68;;
12493;SDS011;8260;51.422;6.786;2022-10-29T11:38:40;11.82;;;4.95;;
12493;SDS011;8260;51.422;6.786;2022-10-29T11:41:18;13.70;;;4.80;;
12493;SDS011;8260;51.422;6.786;2022-10-29T11:43:58;11.38;;;4.53;;
12493;SDS011;8260;51.422;6.786;2022-10-29T11:46:31;10.15;;;5.03;;
12493;SDS011;8260;51.422;6.786;2022-10-29T11:49:02;10.30;;;4.13;;
12493;SDS011;8260;51.422;6.786;2022-10-29T11:51:34;11.73;;;4.75;;
12493;SDS011;8260;51.422;6.786;2022-10-29T11:54:05;13.23;;;4.60;;
12493;SDS011;8260;51.422;6.786;2022-10-29T11:56:45;13.38;;;5.15;;
12493;SDS011;8260;51.422;6.786;2022-10-29T11:59:19;11.60;;;5.00;;
12493;SDS011;8260;51.422;6.786;2022-10-29T12:01:52;11.88;;;4.47;;
12493;SDS011;8260;51.422;6.786;2022-10-29T12:04:26;10.30;;;5.22;;
12493;SDS011;8260;51.422;6.786;2022-10-29T12:07:03;12.45;;;5.07;;
12493;SDS011;8260;51.422;6.786;2022-10-29T12:09:54;8.45;;;4.70;;
12493;SDS011;8260;51.422;6.786;2022-10-29T12:12:30;11.05;;;4.70;;
12493;SDS011;8260;51.422;6.786;2022-10-29T12:15:02;11.98;;;4.85;;
12493;SDS011;8260;51.422;6.786;2022-10-29T12:17:35;10.07;;;4.63;;
12493;SDS011;8260;51.422;6.786;2022-10-29T12:20:09;11.07;;;4.50;;
12493;SDS011;8260;51.422;6.786;2022-10-29T12:22:39;10.20;;;4.82;;
12493;SDS011;8260;51.422;6.786;2022-10-29T12:25:20;11.88;;;4.20;;
12493;SDS011;8260;51.422;6.786;2022-10-29T12:28:08;10.85;;;4.57;;
12493;SDS011;8260;51.422;6.786;2022-10-29T12:31:04;11.73;;;4.80;;
12493;SDS011;8260;51.422;6.786;2022-10-29T12:33:35;10.27;;;4.70;;
12493;SDS011;8260;51.422;6.786;2022-10-29T12:36:20;9.13;;;4.65;;
12493;SDS011;8260;51.422;6.786;2022-10-29T12:39:13;11.85;;;4.70;;
12493;SDS011;8260;51.422;6.786;2022-10-29T12:41:44;8.32;;;4.47;;
12493;SDS011;8260;51.422;6.786;2022-10-29T12:44:29;9.55;;;4.72;;
12493;SDS011;8260;51.422;6.786;2022-10-29T12:47:04;7.70;;;4.40;;
12493;SDS011;8260;51.422;6.786;2022-10-29T12:49:46;10.48;;;4.70;;
12493;SDS011;8260;51.422;6.786;2022-10-29T12:52:23;16.35;;;4.60;;
12493;SDS011;8260;51.422;6.786;2022-10-29T12:55:03;12.57;;;4.82;;
12493;SDS011;8260;51.422;6.786;2022-10-29T12:57:33;9.00;;;4.28;;
12493;SDS011;8260;51.422;6.786;2022-10-29T13:03:03;11.68;;;4.63;;
12493;SDS011;8260;51.422;6.786;2022-10-29T13:05:39;11.52;;;4.60;;
12493;SDS011;8260;51.422;6.786;2022-10-29T13:08:23;8.68;;;4.28;;
12493;SDS011;8260;51.422;6.786;2022-10-29T13:10:54;9.43;;;4.80;;
12493;SDS011;8260;51.422;6.786;2022-10-29T13:13:32;11.27;;;4.53;;
12493;SDS011;8260;51.422;6.786;2022-10-29T13:16:25;10.32;;;4.15;;
12493;SDS011;8260;51.422;6.786;2022-10-29T13:18:59;9.75;;;4.88;;
12493;SDS011;8260;51.422;6.786;2022-10-29T13:21:54;9.32;;;4.38;;
12493;SDS011;8260;51.422;6.786;2022-10-29T13:24:23;10.00;;;5.10;;
12493;SDS011;8260;51.422;6.786;2022-10-29T13:27:01;11.23;;;4.15;;
12493;SDS011;8260;51.422;6.786;2022-10-29T13:29:44;10.90;;;4.90;;
12493;SDS011;8260;51.422;6.786;2022-10-29T13:32:28;8.45;;;4.50;;
12493;SDS011;8260;51.422;6.786;2022-10-29T13:34:57;10.27;;;3.97;;
12493;SDS011;8260;51.422;6.786;2022-10-29T13:43:21;14.45;;;4.30;;
12493;SDS011;8260;51.422;6.786;2022-10-29T13:45:58;11.65;;;4.88;;
12493;SDS011;8260;51.422;6.786;2022-10-29T13:48:29;14.48;;;4.35;;
12493;SDS011;8260;51.422;6.786;2022-10-29T13:51:13;13.13;;;4.60;;
12493;SDS011;8260;51.422;6.786;2022-10-29T13:53:57;12.15;;;4.70;;
12493;SDS011;8260;51.422;6.786;2022-10-29T13:56:29;9.55;;;4.45;;
12493;SDS011;8260;51.422;6.786;2022-10-29T13:59:06;10.18;;;4.07;;
12493;SDS011;8260;51.422;6.786;2022-10-29T14:01:37;15.20;;;4.80;;
12493;SDS011;8260;51.422;6.786;2022-10-29T14:04:11;7.93;;;4.45;;
12493;SDS011;8260;51.422;6.786;2022-10-29T14:06:43;12.93;;;5.10;;
12493;SDS011;8260;51.422;6.786;2022-10-29T14:09:18;14.18;;;4.68;;
12493;SDS011;8260;51.422;6.786;2022-10-29T14:12:04;11.13;;;4.35;;
12493;SDS011;8260;51.422;6.786;2022-10-29T14:14:45;12.02;;;4.60;;
12493;SDS011;8260;51.422;6.786;2022-10-29T14:17:17;8.57;;;4.30;;
12493;SDS011;8260;51.422;6.786;2022-10-29T14:20:00;10.80;;;4.30;;
12493;SDS011;8260;51.422;6.786;2022-10-29T14:22:33;13.55;;;4.82;;
12493;SDS011;8260;51.422;6.786;2022-10-29T14:27:46;7.25;;;4.57;;
12493;SDS011;8260;51.422;6.786;2022-10-29T14:30:17;8.05;;;4.50;;
12493;SDS011;8260;51.422;6.786;2022-10-29T14:32:48;13.13;;;4.57;;
12493;SDS011;8260;51.422;6.786;2022-10-29T14:35:18;9.65;;;4.90;;
12493;SDS011;8260;51.422;6.786;2022-10-29T14:37:47;11.68;;;5.05;;
12493;SDS011;8260;51.422;6.786;2022-10-29T14:40:17;12.73;;;4.75;;
12493;SDS011;8260;51.422;6.786;2022-10-29T14:43:00;8.05;;;4.40;;
12493;SDS011;8260;51.422;6.786;2022-10-29T14:45:43;9.73;;;4.70;;
12493;SDS011;8260;51.422;6.786;2022-10-29T14:48:13;12.23;;;4.70;;
12493;SDS011;8260;51.422;6.786;2022-10-29T14:51:16;12.68;;;4.57;;
12493;SDS011;8260;51.422;6.786;2022-10-29T14:54:02;8.10;;;4.07;;
12493;SDS011;8260;51.422;6.786;2022-10-29T14:56:32;9.73;;;4.15;;
12493;SDS011;8260;51.422;6.786;2022-10-29T14:59:02;11.63;;;5.10;;
12493;SDS011;8260;51.422;6.786;2022-10-29T15:02:16;10.55;;;4.63;;
12493;SDS011;8260;51.422;6.786;2022-10-29T15:05:01;14.32;;;4.72;;
12493;SDS011;8260;51.422;6.786;2022-10-29T15:07:33;12.80;;;4.72;;
12493;SDS011;8260;51.422;6.786;2022-10-29T15:10:13;10.70;;;4.57;;
12493;SDS011;8260;51.422;6.786;2022-10-29T15:12:43;13.27;;;4.30;;
12493;SDS011;8260;51.422;6.786;2022-10-29T15:15:21;15.55;;;4.30;;
12493;SDS011;8260;51.422;6.786;2022-10-29T15:17:52;8.70;;;4.22;;
12493;SDS011;8260;51.422;6.786;2022-10-29T15:20:24;11.77;;;4.90;;
12493;SDS011;8260;51.422;6.786;2022-10-29T15:23:13;13.85;;;4.97;;
12493;SDS011;8260;51.422;6.786;2022-10-29T15:25:52;9.82;;;4.32;;
12493;SDS011;8260;51.422;6.786;2022-10-29T15:28:25;9.38;;;4.18;;
12493;SDS011;8260;51.422;6.786;2022-10-29T15:31:10;9.02;;;4.47;;
12493;SDS011;8260;51.422;6.786;2022-10-29T15:33:40;8.50;;;4.35;;
12493;SDS011;8260;51.422;6.786;2022-10-29T15:36:44;14.88;;;5.10;;